Hot Springs Recreation Area, Montana
Current Conditions -  °F | °C
As of 11:35 AM on Wednesday 26 Nov 2014 (Local Time) from KSMN Reporting Station
Overcast Overcast  
Wind Chill: 34°   Ceiling: 200
Heat Index: 34°   Visibility: 0.5mi
Dew Point: 32°   Wind: 0mph
Humidity: 93%   Direction: NA
Pressure: 30.23"   Gusts: NA
Location:  45.36°N, 113.46°W
Report Text: KSMN 261835Z AUTO 00000KT 1/2SM OVC002 01/00 A3023 RMK AO1
Loading
Personal Weather Stations






























Interactive Weather Map New forecast layout! Learn more

10-Day Weather Forecast

Advertisements
Track Severe Weather on mobile